createdAt,value
2023-03-19T00:00:34.433Z,4.60
2023-03-19T00:03:01.415Z,4.43
2023-03-19T00:05:28.257Z,4.33
2023-03-19T00:07:54.994Z,3.50
2023-03-19T00:10:21.696Z,5.10
2023-03-19T00:12:48.634Z,3.80
2023-03-19T00:15:15.972Z,4.07
2023-03-19T00:17:43.420Z,3.97
2023-03-19T00:20:12.572Z,3.80
2023-03-19T00:22:39.991Z,3.93
2023-03-19T00:25:08.572Z,4.17
2023-03-19T00:27:36.852Z,3.90
2023-03-19T00:30:05.336Z,3.07
2023-03-19T00:32:33.522Z,3.63
2023-03-19T00:35:00.632Z,3.03
2023-03-19T00:37:27.704Z,3.80
2023-03-19T00:39:54.394Z,3.77
2023-03-19T00:42:21.306Z,3.33
2023-03-19T00:44:47.933Z,3.47
2023-03-19T00:47:14.522Z,3.40
2023-03-19T00:49:41.143Z,3.13
2023-03-19T00:52:08.307Z,3.60
2023-03-19T00:54:35.000Z,3.77
2023-03-19T00:57:01.773Z,3.53
2023-03-19T00:59:29.540Z,3.67
2023-03-19T01:01:56.230Z,3.70
2023-03-19T01:04:23.264Z,3.20
2023-03-19T01:06:50.795Z,4.50
2023-03-19T01:09:17.634Z,4.17
2023-03-19T01:11:44.387Z,2.80
2023-03-19T01:14:11.726Z,3.80
2023-03-19T01:16:38.767Z,3.57
2023-03-19T01:19:06.369Z,3.30
2023-03-19T01:21:33.979Z,3.80
2023-03-19T01:24:00.710Z,4.00
2023-03-19T01:26:27.785Z,3.10
2023-03-19T01:28:54.571Z,4.03
2023-03-19T01:31:22.826Z,3.17
2023-03-19T01:33:49.547Z,3.37
2023-03-19T01:36:16.606Z,3.47
2023-03-19T01:38:43.420Z,3.50
2023-03-19T01:41:10.110Z,3.30
2023-03-19T01:43:37.492Z,3.20
2023-03-19T01:46:21.745Z,3.23
2023-03-19T01:48:50.100Z,4.03
2023-03-19T01:51:20.564Z,3.40
2023-03-19T01:53:52.447Z,3.17
2023-03-19T01:56:29.949Z,3.77
2023-03-19T01:59:01.162Z,3.43
2023-03-19T02:01:29.500Z,3.40
2023-03-19T02:03:57.183Z,3.73
2023-03-19T02:06:24.205Z,3.13
2023-03-19T02:08:52.542Z,3.90
2023-03-19T02:11:20.301Z,3.70
2023-03-19T02:13:47.419Z,3.50
2023-03-19T02:16:15.529Z,3.97
2023-03-19T02:18:43.219Z,3.77
2023-03-19T02:21:17.948Z,2.80
2023-03-19T02:24:27.667Z,3.03
2023-03-19T02:26:56.164Z,3.80
2023-03-19T02:29:22.804Z,3.87
2023-03-19T02:31:49.519Z,2.73
2023-03-19T02:34:19.215Z,3.50
2023-03-19T02:36:51.992Z,3.67
2023-03-19T02:39:47.932Z,3.33
2023-03-19T02:42:17.140Z,3.53
2023-03-19T02:44:43.887Z,4.83
2023-03-19T02:47:10.695Z,4.97
2023-03-19T02:49:37.516Z,4.30
2023-03-19T02:52:04.446Z,3.17
2023-03-19T02:54:31.121Z,3.40
2023-03-19T02:56:58.028Z,3.80
2023-03-19T02:59:24.728Z,3.37
2023-03-19T03:01:51.475Z,4.10
2023-03-19T03:04:18.217Z,4.30
2023-03-19T03:06:45.239Z,3.87
2023-03-19T03:09:13.440Z,3.43
2023-03-19T03:11:41.692Z,3.40
2023-03-19T03:14:08.444Z,4.00
2023-03-19T03:16:35.277Z,3.40
2023-03-19T03:19:02.494Z,3.50
2023-03-19T03:21:29.552Z,3.00
2023-03-19T03:23:56.412Z,3.10
2023-03-19T03:26:23.149Z,3.10
2023-03-19T03:28:49.972Z,4.10
2023-03-19T03:31:16.833Z,3.70
2023-03-19T03:33:43.566Z,3.60
2023-03-19T03:36:10.496Z,3.50
2023-03-19T03:38:37.391Z,4.10
2023-03-19T03:41:04.730Z,3.23
2023-03-19T03:43:31.684Z,3.53
2023-03-19T03:45:58.514Z,3.10
2023-03-19T03:48:25.982Z,3.33
2023-03-19T03:50:52.677Z,3.20
2023-03-19T03:53:19.587Z,2.83
2023-03-19T03:55:46.487Z,3.60
2023-03-19T03:58:13.231Z,3.53
2023-03-19T04:00:40.489Z,3.27
2023-03-19T04:03:07.293Z,3.20
2023-03-19T04:05:34.030Z,2.80
2023-03-19T04:08:00.759Z,3.67
2023-03-19T04:10:27.759Z,3.40
2023-03-19T04:12:54.495Z,3.40
2023-03-19T04:15:21.624Z,3.77
2023-03-19T04:17:48.794Z,4.60
2023-03-19T04:20:16.426Z,3.50
2023-03-19T04:22:43.229Z,3.80
2023-03-19T04:25:10.226Z,3.70
2023-03-19T04:27:36.943Z,3.23
2023-03-19T04:30:04.572Z,3.63
2023-03-19T04:32:31.188Z,3.60
2023-03-19T04:34:58.779Z,3.67
2023-03-19T04:37:25.444Z,4.13
2023-03-19T04:39:52.099Z,3.70
2023-03-19T04:42:19.161Z,3.27
2023-03-19T04:44:45.795Z,4.13
2023-03-19T04:47:12.680Z,3.80
2023-03-19T04:49:39.348Z,3.40
2023-03-19T04:52:06.136Z,3.50
2023-03-19T04:54:32.998Z,4.10
2023-03-19T04:56:59.670Z,3.30
2023-03-19T04:59:26.419Z,4.13
2023-03-19T05:01:53.484Z,4.40
2023-03-19T05:04:20.265Z,4.20
2023-03-19T05:06:47.061Z,3.37
2023-03-19T05:09:13.772Z,3.57
2023-03-19T05:11:40.441Z,2.90
2023-03-19T05:14:07.209Z,2.97
2023-03-19T05:16:35.680Z,3.53
2023-03-19T05:19:02.360Z,3.50
2023-03-19T05:21:29.024Z,3.97
2023-03-19T05:23:57.205Z,3.80
2023-03-19T05:26:24.044Z,3.60
2023-03-19T05:28:50.950Z,3.73
2023-03-19T05:31:17.615Z,3.77
2023-03-19T05:33:44.302Z,4.30
2023-03-19T05:36:13.010Z,3.83
2023-03-19T05:38:39.655Z,3.67
2023-03-19T05:41:07.034Z,3.50
2023-03-19T05:43:34.209Z,3.20
2023-03-19T05:46:00.879Z,3.90
2023-03-19T05:48:27.553Z,3.40
2023-03-19T05:50:54.252Z,3.67
2023-03-19T05:53:21.483Z,4.40
2023-03-19T05:55:48.354Z,5.10
2023-03-19T05:58:15.686Z,4.20
2023-03-19T06:00:42.723Z,3.87
2023-03-19T06:03:09.445Z,3.60
2023-03-19T06:05:36.526Z,3.00
2023-03-19T06:08:03.363Z,3.20
2023-03-19T06:10:30.104Z,3.40
2023-03-19T06:12:57.089Z,3.00
2023-03-19T06:15:23.907Z,2.90
2023-03-19T06:17:50.682Z,2.63
2023-03-19T06:20:17.762Z,3.13
2023-03-19T06:22:44.874Z,2.87
2023-03-19T06:25:12.137Z,2.60
2023-03-19T06:27:39.041Z,2.47
2023-03-19T06:30:07.280Z,3.20
2023-03-19T06:32:34.374Z,2.97
2023-03-19T06:35:01.039Z,3.67
2023-03-19T06:37:28.034Z,3.17
2023-03-19T06:39:54.790Z,3.33
2023-03-19T06:42:22.175Z,3.50
2023-03-19T06:44:50.684Z,3.77
2023-03-19T06:47:18.606Z,3.77
2023-03-19T06:49:45.646Z,3.20
2023-03-19T06:52:12.375Z,4.70
2023-03-19T06:54:39.180Z,4.87
2023-03-19T06:57:06.093Z,4.47
2023-03-19T06:59:32.708Z,3.83
2023-03-19T07:01:59.544Z,3.00
2023-03-19T07:04:26.799Z,3.93
2023-03-19T07:06:53.483Z,3.40
2023-03-19T07:09:20.195Z,3.77
2023-03-19T07:11:46.854Z,4.70
2023-03-19T07:14:13.544Z,4.30
2023-03-19T07:16:40.283Z,4.57
2023-03-19T07:19:07.187Z,4.40
2023-03-19T07:21:34.328Z,3.57
2023-03-19T07:24:01.016Z,5.20
2023-03-19T07:26:27.743Z,4.30
2023-03-19T07:28:54.398Z,4.43
2023-03-19T07:31:21.156Z,3.10
2023-03-19T07:33:47.850Z,4.77
2023-03-19T07:36:14.545Z,4.37
2023-03-19T07:38:41.195Z,3.73
2023-03-19T07:41:07.905Z,4.33
2023-03-19T07:43:34.538Z,3.40
2023-03-19T07:46:01.487Z,5.03
2023-03-19T07:48:28.306Z,4.33
2023-03-19T07:50:55.078Z,3.57
2023-03-19T07:53:21.987Z,3.77
2023-03-19T07:55:49.183Z,4.30
2023-03-19T07:58:16.799Z,8.30
2023-03-19T08:00:44.906Z,9.93
2023-03-19T08:03:11.709Z,6.47
2023-03-19T08:05:38.526Z,7.97
2023-03-19T08:08:05.493Z,5.73
2023-03-19T08:10:35.495Z,5.60
2023-03-19T08:13:05.057Z,4.10
2023-03-19T08:15:31.761Z,5.03
2023-03-19T08:18:03.686Z,4.60
2023-03-19T08:20:30.773Z,4.50
2023-03-19T08:22:57.808Z,4.30
2023-03-19T08:25:26.013Z,4.10
2023-03-19T08:27:52.637Z,4.23
2023-03-19T08:30:19.507Z,5.07
2023-03-19T08:32:46.545Z,4.67
2023-03-19T08:35:14.125Z,5.53
2023-03-19T08:37:40.951Z,3.80
2023-03-19T08:40:08.189Z,4.07
2023-03-19T08:42:34.876Z,4.53
2023-03-19T08:45:01.507Z,3.53
2023-03-19T08:47:28.170Z,3.10
2023-03-19T08:49:54.803Z,4.10
2023-03-19T08:52:21.550Z,3.20
2023-03-19T08:54:48.199Z,3.40
2023-03-19T08:57:14.852Z,2.40
2023-03-19T08:59:41.705Z,2.80
2023-03-19T09:02:11.811Z,2.60
2023-03-19T09:04:43.494Z,3.03
2023-03-19T09:07:13.226Z,2.53
2023-03-19T09:09:40.983Z,2.97
2023-03-19T09:12:09.379Z,2.43
2023-03-19T09:14:37.260Z,2.50
2023-03-19T09:17:04.801Z,2.23
2023-03-19T09:19:31.965Z,2.40
2023-03-19T09:21:58.731Z,2.80
2023-03-19T09:24:26.207Z,2.00
2023-03-19T09:26:53.048Z,2.37
2023-03-19T09:29:19.889Z,2.33
2023-03-19T09:31:46.707Z,2.30
2023-03-19T09:34:13.946Z,2.20
2023-03-19T09:36:40.996Z,2.23
2023-03-19T09:39:08.444Z,2.03
2023-03-19T09:42:03.529Z,2.27
2023-03-19T09:44:36.110Z,2.27
2023-03-19T09:47:24.182Z,2.27
2023-03-19T09:49:53.326Z,2.27
2023-03-19T09:52:50.929Z,2.20
2023-03-19T09:55:24.033Z,2.60
2023-03-19T09:57:53.304Z,2.57
2023-03-19T10:00:33.897Z,2.30
2023-03-19T10:03:26.972Z,2.17
2023-03-19T10:06:22.238Z,2.30
2023-03-19T10:09:04.384Z,2.50
2023-03-19T10:12:08.309Z,2.43
2023-03-19T10:15:09.011Z,2.80
2023-03-19T10:17:45.483Z,2.40
2023-03-19T10:20:29.645Z,2.20
2023-03-19T10:23:23.691Z,2.77
2023-03-19T10:25:54.222Z,2.80
2023-03-19T10:28:22.364Z,2.53
2023-03-19T10:31:02.608Z,2.23
2023-03-19T10:33:52.154Z,2.27
2023-03-19T10:36:21.556Z,2.33
2023-03-19T10:38:48.323Z,2.40
2023-03-19T10:41:29.230Z,2.40
2023-03-19T10:44:06.085Z,2.30
2023-03-19T10:46:40.238Z,2.40
2023-03-19T10:49:13.133Z,2.23
2023-03-19T10:51:43.102Z,2.30
2023-03-19T10:54:28.008Z,2.87
2023-03-19T10:56:59.984Z,2.47
2023-03-19T10:59:33.342Z,2.23
2023-03-19T11:02:14.299Z,2.50
2023-03-19T11:04:40.992Z,2.40
2023-03-19T11:07:13.870Z,1.90
2023-03-19T11:09:44.463Z,2.37
2023-03-19T11:12:31.507Z,2.63
2023-03-19T11:14:58.926Z,2.33
2023-03-19T11:17:39.014Z,1.93
2023-03-19T11:20:19.914Z,2.00
2023-03-19T11:22:47.462Z,2.00
2023-03-19T11:25:23.328Z,2.63
2023-03-19T11:28:14.158Z,2.27
2023-03-19T11:30:46.857Z,1.70
2023-03-19T11:34:10.602Z,2.03
2023-03-19T11:37:11.302Z,2.47
2023-03-19T11:40:06.868Z,2.30
2023-03-19T11:42:57.439Z,2.10
2023-03-19T11:45:24.340Z,2.53
2023-03-19T11:48:06.622Z,2.10
2023-03-19T11:50:57.556Z,1.80
2023-03-19T11:53:35.413Z,2.00
2023-03-19T11:56:19.545Z,2.13
2023-03-19T11:58:49.193Z,1.90
2023-03-19T12:01:34.767Z,1.77
2023-03-19T12:05:00.211Z,1.67
2023-03-19T12:07:38.837Z,1.80
2023-03-19T12:10:30.085Z,1.73
2023-03-19T12:13:23.845Z,1.93
2023-03-19T12:15:56.370Z,2.40
2023-03-19T12:18:59.869Z,2.00
2023-03-19T12:21:41.316Z,2.07
2023-03-19T12:24:23.511Z,2.07
2023-03-19T12:26:59.762Z,2.03
2023-03-19T12:29:43.216Z,1.83
2023-03-19T12:32:46.568Z,1.47
2023-03-19T12:35:18.014Z,1.40
2023-03-19T12:37:55.253Z,1.40
2023-03-19T12:40:37.363Z,1.97
2023-03-19T12:43:21.768Z,1.23
2023-03-19T12:45:58.672Z,1.40
2023-03-19T12:48:31.060Z,1.40
2023-03-19T12:51:05.711Z,1.33
2023-03-19T12:53:50.766Z,1.37
2023-03-19T12:56:54.185Z,1.33
2023-03-19T12:59:49.283Z,1.27
2023-03-19T13:02:38.377Z,1.30
2023-03-19T13:05:31.656Z,1.40
2023-03-19T13:08:01.729Z,1.40
2023-03-19T13:10:31.885Z,1.20
2023-03-19T13:13:00.231Z,1.60
2023-03-19T13:15:35.719Z,1.70
2023-03-19T13:18:15.839Z,1.30
2023-03-19T13:21:10.702Z,1.43
2023-03-19T13:23:41.484Z,1.30
2023-03-19T13:26:12.604Z,1.90
2023-03-19T13:29:08.026Z,1.50
2023-03-19T13:31:36.624Z,1.43
2023-03-19T13:34:20.587Z,1.73
2023-03-19T13:37:07.011Z,1.60
2023-03-19T13:39:35.759Z,1.67
2023-03-19T13:42:37.272Z,1.30
2023-03-19T13:45:37.473Z,1.50
2023-03-19T13:48:27.164Z,1.40
2023-03-19T13:51:06.166Z,1.60
2023-03-19T13:53:39.233Z,1.50
2023-03-19T13:56:28.540Z,3.30
2023-03-19T13:59:32.119Z,1.30
2023-03-19T14:02:00.238Z,1.50
2023-03-19T14:04:37.256Z,1.60
2023-03-19T14:07:17.751Z,1.40
2023-03-19T14:09:49.478Z,1.57
2023-03-19T14:12:16.279Z,1.97
2023-03-19T14:15:05.415Z,1.47
2023-03-19T14:17:42.402Z,1.60
2023-03-19T14:20:13.190Z,1.87
2023-03-19T14:23:02.040Z,1.60
2023-03-19T14:25:51.700Z,2.00
2023-03-19T14:28:23.207Z,1.53
2023-03-19T14:30:50.356Z,1.50
2023-03-19T14:33:40.000Z,1.40
2023-03-19T14:36:08.178Z,1.27
2023-03-19T14:38:42.716Z,1.40
2023-03-19T14:41:15.447Z,1.63
2023-03-19T14:43:57.382Z,1.40
2023-03-19T14:46:48.404Z,1.97
2023-03-19T14:49:56.864Z,1.70
2023-03-19T14:52:36.511Z,1.83
2023-03-19T14:55:10.324Z,2.00
2023-03-19T14:57:37.015Z,1.70
2023-03-19T15:00:07.440Z,2.70
2023-03-19T15:02:38.881Z,5.20
2023-03-19T15:05:15.467Z,3.23
2023-03-19T15:07:45.885Z,2.93
2023-03-19T15:10:18.892Z,3.30
2023-03-19T15:13:04.085Z,2.30
2023-03-19T15:15:34.808Z,2.60
2023-03-19T15:18:09.648Z,2.00
2023-03-19T15:20:44.486Z,2.60
2023-03-19T15:23:26.130Z,3.13
2023-03-19T15:25:58.096Z,2.37
2023-03-19T15:28:28.406Z,2.90
2023-03-19T15:31:20.328Z,3.47
2023-03-19T15:33:50.902Z,3.70
2023-03-19T15:36:24.147Z,4.00
2023-03-19T15:38:57.052Z,3.60
2023-03-19T15:41:26.279Z,3.03
2023-03-19T15:43:53.836Z,3.50
2023-03-19T15:46:25.185Z,3.63
2023-03-19T15:48:54.986Z,3.53
2023-03-19T15:51:23.726Z,4.07
2023-03-19T15:53:50.650Z,4.33
2023-03-19T15:56:19.399Z,5.50
2023-03-19T15:58:51.321Z,5.70
2023-03-19T16:01:19.559Z,3.13
2023-03-19T16:03:55.415Z,2.80
2023-03-19T16:06:29.098Z,2.60
2023-03-19T16:09:06.606Z,3.13
2023-03-19T16:11:38.684Z,2.50
2023-03-19T16:14:14.270Z,2.47
2023-03-19T16:16:42.510Z,2.43
2023-03-19T16:19:50.256Z,2.00
2023-03-19T16:22:22.542Z,2.20
2023-03-19T16:24:51.645Z,2.77
2023-03-19T16:27:21.416Z,2.63
2023-03-19T16:29:55.633Z,2.17
2023-03-19T16:32:30.528Z,2.00
2023-03-19T16:35:11.554Z,2.20
2023-03-19T16:37:41.067Z,2.03
2023-03-19T16:40:13.844Z,2.07
2023-03-19T16:42:44.130Z,2.23
2023-03-19T16:45:27.409Z,2.50
2023-03-19T16:47:56.911Z,2.30
2023-03-19T16:50:44.046Z,1.90
2023-03-19T16:53:24.288Z,2.20
2023-03-19T16:55:53.207Z,2.37
2023-03-19T16:58:34.706Z,2.20
2023-03-19T17:01:01.764Z,2.40
2023-03-19T17:03:30.204Z,2.67
2023-03-19T17:05:57.504Z,2.90
2023-03-19T17:08:26.152Z,2.87
2023-03-19T17:10:54.007Z,2.57
2023-03-19T17:13:28.305Z,2.33
2023-03-19T17:15:57.235Z,2.50
2023-03-19T17:18:26.615Z,2.00
2023-03-19T17:20:58.058Z,2.93
2023-03-19T17:23:27.069Z,3.30
2023-03-19T17:25:54.641Z,3.10
2023-03-19T17:28:21.492Z,3.33
2023-03-19T17:30:48.499Z,2.50
2023-03-19T17:33:21.686Z,2.30
2023-03-19T17:35:48.384Z,3.23
2023-03-19T17:38:18.367Z,2.63
2023-03-19T17:40:46.344Z,3.20
2023-03-19T17:43:14.008Z,2.20
2023-03-19T17:45:45.870Z,2.70
2023-03-19T17:48:22.055Z,2.60
2023-03-19T17:50:49.991Z,3.77
2023-03-19T17:53:18.513Z,4.43
2023-03-19T17:55:46.353Z,4.43
2023-03-19T17:58:18.525Z,3.60
2023-03-19T18:00:46.942Z,3.50
2023-03-19T18:03:16.463Z,2.53
2023-03-19T18:05:44.062Z,2.50
2023-03-19T18:08:16.181Z,2.23
2023-03-19T18:10:43.565Z,2.40
2023-03-19T18:13:10.703Z,2.77
2023-03-19T18:15:40.021Z,2.60
2023-03-19T18:18:11.093Z,2.77
2023-03-19T18:20:39.568Z,2.33
2023-03-19T18:23:06.758Z,3.07
2023-03-19T18:25:35.550Z,2.50
2023-03-19T18:28:05.948Z,3.60
2023-03-19T18:30:35.188Z,3.30
2023-03-19T18:33:04.575Z,3.70
2023-03-19T18:35:38.516Z,4.00
2023-03-19T18:38:13.071Z,3.23
2023-03-19T18:40:39.699Z,2.87
2023-03-19T18:43:07.149Z,3.50
2023-03-19T18:45:33.917Z,3.50
2023-03-19T18:48:00.653Z,3.80
2023-03-19T18:50:30.300Z,4.30
2023-03-19T18:52:57.160Z,3.70
2023-03-19T18:55:28.766Z,4.07
2023-03-19T18:58:01.597Z,5.07
2023-03-19T19:00:31.496Z,4.50
2023-03-19T19:02:58.659Z,4.00
2023-03-19T19:05:28.080Z,3.40
2023-03-19T19:08:00.501Z,3.33
2023-03-19T19:10:32.520Z,3.70
2023-03-19T19:13:00.239Z,3.90
2023-03-19T19:15:31.133Z,3.53
2023-03-19T19:17:57.940Z,3.23
2023-03-19T19:20:29.711Z,4.77
2023-03-19T19:22:56.862Z,3.60
2023-03-19T19:25:26.745Z,3.43
2023-03-19T19:28:02.461Z,3.47
2023-03-19T19:30:29.768Z,2.97
2023-03-19T19:32:57.315Z,3.47
2023-03-19T19:35:26.798Z,3.20
2023-03-19T19:37:54.124Z,3.10
2023-03-19T19:40:24.941Z,6.30
2023-03-19T19:42:52.881Z,6.30
2023-03-19T19:45:41.620Z,6.30
2023-03-19T19:48:17.465Z,6.53
2023-03-19T19:50:46.250Z,4.40
2023-03-19T19:53:13.269Z,4.77
2023-03-19T19:55:40.318Z,4.40
2023-03-19T19:58:16.809Z,3.53
2023-03-19T20:00:47.765Z,3.97
2023-03-19T20:03:28.024Z,5.50
2023-03-19T20:05:55.249Z,5.27
2023-03-19T20:08:21.927Z,4.70
2023-03-19T20:10:49.905Z,4.13
2023-03-19T20:13:27.628Z,4.30
2023-03-19T20:15:57.020Z,4.47
2023-03-19T20:18:28.099Z,5.83
2023-03-19T20:20:57.346Z,5.30
2023-03-19T20:23:24.026Z,5.10
2023-03-19T20:25:51.887Z,4.37
2023-03-19T20:28:26.245Z,4.27
2023-03-19T20:30:54.151Z,5.40
2023-03-19T20:33:21.530Z,5.70
2023-03-19T20:35:48.366Z,5.20
2023-03-19T20:38:15.633Z,5.97
2023-03-19T20:40:46.458Z,5.60
2023-03-19T20:43:34.071Z,6.43
2023-03-19T20:46:04.340Z,5.90
2023-03-19T20:48:32.385Z,6.23
2023-03-19T20:51:01.302Z,6.33
2023-03-19T20:53:28.743Z,5.67
2023-03-19T20:55:56.386Z,5.93
2023-03-19T20:58:29.665Z,5.20
2023-03-19T21:00:57.837Z,6.67
2023-03-19T21:03:28.156Z,5.47
2023-03-19T21:06:01.791Z,5.50
2023-03-19T21:08:35.663Z,4.20
2023-03-19T21:11:03.354Z,5.60
2023-03-19T21:13:30.225Z,5.30
2023-03-19T21:15:56.956Z,5.10
2023-03-19T21:18:24.200Z,5.37
2023-03-19T21:20:56.885Z,5.97
2023-03-19T21:23:34.606Z,8.90
2023-03-19T21:26:22.187Z,7.27
2023-03-19T21:29:00.519Z,6.40
2023-03-19T21:31:27.260Z,6.57
2023-03-19T21:33:55.372Z,6.70
2023-03-19T21:36:23.814Z,6.00
2023-03-19T21:38:52.451Z,8.47
2023-03-19T21:41:24.857Z,9.13
2023-03-19T21:43:57.228Z,9.23
2023-03-19T21:46:27.119Z,9.23
2023-03-19T21:48:55.289Z,9.87
2023-03-19T21:51:23.526Z,8.63
2023-03-19T21:53:50.164Z,7.63
2023-03-19T21:56:22.834Z,8.00
2023-03-19T21:58:52.078Z,8.00
2023-03-19T22:01:24.705Z,7.67
2023-03-19T22:03:53.125Z,7.03
2023-03-19T22:06:21.983Z,6.40
2023-03-19T22:08:49.199Z,6.60
2023-03-19T22:11:23.023Z,6.37
2023-03-19T22:13:49.696Z,6.30
2023-03-19T22:16:25.894Z,6.57
2023-03-19T22:18:53.196Z,6.57
2023-03-19T22:21:22.463Z,5.30
2023-03-19T22:23:49.509Z,5.27
2023-03-19T22:26:21.848Z,5.20
2023-03-19T22:28:48.701Z,5.43
2023-03-19T22:31:15.438Z,5.53
2023-03-19T22:33:42.135Z,4.70
2023-03-19T22:36:13.680Z,4.60
2023-03-19T22:38:41.519Z,4.33
2023-03-19T22:41:27.651Z,4.30
2023-03-19T22:43:54.867Z,4.90
2023-03-19T22:46:22.154Z,4.97
2023-03-19T22:48:52.759Z,4.30
2023-03-19T22:51:22.570Z,4.30
2023-03-19T22:53:49.994Z,4.67
2023-03-19T22:56:17.655Z,4.33
2023-03-19T22:58:44.715Z,4.10
2023-03-19T23:01:41.670Z,4.90
2023-03-19T23:04:17.306Z,4.50
2023-03-19T23:06:44.119Z,4.53
2023-03-19T23:09:19.602Z,4.63
2023-03-19T23:11:48.315Z,4.27
2023-03-19T23:14:28.595Z,4.27
2023-03-19T23:19:32.766Z,4.23
2023-03-19T23:22:01.355Z,4.60
2023-03-19T23:24:30.270Z,4.27
2023-03-19T23:26:59.363Z,4.20
2023-03-19T23:29:32.508Z,4.27
2023-03-19T23:31:59.263Z,3.77
2023-03-19T23:34:26.916Z,4.50
2023-03-19T23:36:53.778Z,4.43
2023-03-19T23:39:21.148Z,3.87
2023-03-19T23:41:49.863Z,3.73
2023-03-19T23:44:19.325Z,4.20
2023-03-19T23:46:49.333Z,3.57
2023-03-19T23:49:24.903Z,4.10
2023-03-19T23:51:51.598Z,4.43
2023-03-19T23:54:29.597Z,4.07
2023-03-19T23:56:59.718Z,3.83
2023-03-19T23:59:29.332Z,4.00
